Terminal Aerodrome Forecast
Issued by NWS Tampa Bay Area, FL

Home | Current Version | Previous Version | Text Only | Print | Product List | Glossary On
Versions: 1 2 3 4 5 6 7 8 9 10 11 12 13 14 15 16
000
FTUS42 KTBW 011407 AAA
TAFFMY
TAF AMD
KFMY 011407Z 0114/0212 14011KT P6SM FEW035 FEW250
     FM012000 19008KT P6SM SCT045 SCT250
     FM020300 10005KT P6SM FEW250=

USA.gov is the U.S. government's official web portal to all federal, state and local government web resources and services.